sensor_id;sensor_type;location;lat;lon;timestamp;pressure;altitude;pressure_sealevel;temperature;humidity
20043;BME280;10182;52.896;6.496;2023-03-25T00:01:09;99791.78;;;9.07;100.00
20043;BME280;10182;52.896;6.496;2023-03-25T00:06:15;99797.06;;;9.07;100.00
20043;BME280;10182;52.896;6.496;2023-03-25T00:11:17;99793.41;;;9.09;100.00
20043;BME280;10182;52.896;6.496;2023-03-25T00:16:18;99792.53;;;9.09;100.00
20043;BME280;10182;52.896;6.496;2023-03-25T00:21:22;99782.75;;;9.11;100.00
20043;BME280;10182;52.896;6.496;2023-03-25T00:26:23;99783.78;;;9.08;100.00
20043;BME280;10182;52.896;6.496;2023-03-25T00:31:29;99789.41;;;9.02;100.00
20043;BME280;10182;52.896;6.496;2023-03-25T00:36:32;99803.38;;;9.04;100.00
20043;BME280;10182;52.896;6.496;2023-03-25T00:41:36;99803.94;;;8.77;100.00
20043;BME280;10182;52.896;6.496;2023-03-25T00:46:41;99802.47;;;8.56;100.00
20043;BME280;10182;52.896;6.496;2023-03-25T00:51:44;99788.75;;;8.32;100.00
20043;BME280;10182;52.896;6.496;2023-03-25T00:56:46;99800.09;;;8.16;100.00
20043;BME280;10182;52.896;6.496;2023-03-25T01:01:48;99804.94;;;8.08;100.00
20043;BME280;10182;52.896;6.496;2023-03-25T01:06:53;99810.59;;;8.00;100.00
20043;BME280;10182;52.896;6.496;2023-03-25T01:11:55;99813.59;;;7.92;100.00
20043;BME280;10182;52.896;6.496;2023-03-25T01:16:58;99821.13;;;7.83;100.00
20043;BME280;10182;52.896;6.496;2023-03-25T01:22:01;99812.22;;;7.85;100.00
20043;BME280;10182;52.896;6.496;2023-03-25T01:27:03;99814.22;;;7.80;100.00
20043;BME280;10182;52.896;6.496;2023-03-25T01:32:05;99808.72;;;7.85;100.00
20043;BME280;10182;52.896;6.496;2023-03-25T01:37:08;99811.28;;;7.86;100.00
20043;BME280;10182;52.896;6.496;2023-03-25T01:42:10;99804.28;;;7.85;100.00
20043;BME280;10182;52.896;6.496;2023-03-25T01:47:13;99797.00;;;7.90;100.00
20043;BME280;10182;52.896;6.496;2023-03-25T01:52:20;99794.75;;;7.83;100.00
20043;BME280;10182;52.896;6.496;2023-03-25T01:57:24;99797.22;;;7.86;100.00
20043;BME280;10182;52.896;6.496;2023-03-25T02:02:27;99785.84;;;7.85;100.00
20043;BME280;10182;52.896;6.496;2023-03-25T02:07:38;99788.56;;;7.84;100.00
20043;BME280;10182;52.896;6.496;2023-03-25T02:12:41;99787.75;;;7.82;100.00
20043;BME280;10182;52.896;6.496;2023-03-25T02:17:56;99793.03;;;7.82;100.00
20043;BME280;10182;52.896;6.496;2023-03-25T02:23:27;99791.34;;;7.81;100.00
20043;BME280;10182;52.896;6.496;2023-03-25T02:28:37;99785.06;;;7.83;100.00
20043;BME280;10182;52.896;6.496;2023-03-25T02:33:58;99794.19;;;7.76;100.00
20043;BME280;10182;52.896;6.496;2023-03-25T02:39:09;99786.63;;;7.70;100.00
20043;BME280;10182;52.896;6.496;2023-03-25T02:44:14;99795.59;;;7.66;100.00
20043;BME280;10182;52.896;6.496;2023-03-25T02:49:21;99791.34;;;7.63;100.00
20043;BME280;10182;52.896;6.496;2023-03-25T02:54:28;99792.25;;;7.62;100.00
20043;BME280;10182;52.896;6.496;2023-03-25T02:59:34;99791.19;;;7.66;100.00
20043;BME280;10182;52.896;6.496;2023-03-25T03:04:46;99770.94;;;7.67;100.00
20043;BME280;10182;52.896;6.496;2023-03-25T03:09:55;99774.28;;;7.70;100.00
20043;BME280;10182;52.896;6.496;2023-03-25T03:15:07;99769.09;;;7.69;100.00
20043;BME280;10182;52.896;6.496;2023-03-25T03:20:20;99769.09;;;7.69;100.00
20043;BME280;10182;52.896;6.496;2023-03-25T03:25:29;99776.06;;;7.70;100.00
20043;BME280;10182;52.896;6.496;2023-03-25T03:30:38;99776.28;;;7.65;100.00
20043;BME280;10182;52.896;6.496;2023-03-25T03:35:46;99767.38;;;7.68;100.00
20043;BME280;10182;52.896;6.496;2023-03-25T03:40:55;99767.28;;;7.69;100.00
20043;BME280;10182;52.896;6.496;2023-03-25T03:46:01;99766.13;;;7.75;100.00
20043;BME280;10182;52.896;6.496;2023-03-25T03:51:08;99759.31;;;7.71;100.00
20043;BME280;10182;52.896;6.496;2023-03-25T03:56:16;99759.38;;;7.69;100.00
20043;BME280;10182;52.896;6.496;2023-03-25T04:01:26;99759.72;;;7.63;100.00
20043;BME280;10182;52.896;6.496;2023-03-25T04:06:33;99769.25;;;7.66;100.00
20043;BME280;10182;52.896;6.496;2023-03-25T04:11:42;99764.81;;;7.66;100.00
20043;BME280;10182;52.896;6.496;2023-03-25T04:16:47;99763.25;;;7.62;100.00
20043;BME280;10182;52.896;6.496;2023-03-25T04:21:48;99760.78;;;7.59;100.00
20043;BME280;10182;52.896;6.496;2023-03-25T04:26:51;99756.44;;;7.58;100.00
20043;BME280;10182;52.896;6.496;2023-03-25T04:31:53;99765.59;;;7.51;100.00
20043;BME280;10182;52.896;6.496;2023-03-25T04:36:56;99754.06;;;7.53;100.00
20043;BME280;10182;52.896;6.496;2023-03-25T04:41:59;99750.47;;;7.54;100.00
20043;BME280;10182;52.896;6.496;2023-03-25T04:47:02;99749.78;;;7.51;100.00
20043;BME280;10182;52.896;6.496;2023-03-25T04:52:04;99743.50;;;7.53;100.00
20043;BME280;10182;52.896;6.496;2023-03-25T04:57:10;99742.47;;;7.56;100.00
20043;BME280;10182;52.896;6.496;2023-03-25T05:02:12;99739.00;;;7.55;100.00
20043;BME280;10182;52.896;6.496;2023-03-25T05:07:14;99731.00;;;7.57;100.00
20043;BME280;10182;52.896;6.496;2023-03-25T05:12:19;99753.19;;;7.53;100.00
20043;BME280;10182;52.896;6.496;2023-03-25T05:17:21;99751.09;;;7.59;100.00
20043;BME280;10182;52.896;6.496;2023-03-25T05:22:22;99750.78;;;7.48;100.00
20043;BME280;10182;52.896;6.496;2023-03-25T05:27:25;99766.59;;;7.48;100.00
20043;BME280;10182;52.896;6.496;2023-03-25T05:32:29;99761.31;;;7.48;100.00
20043;BME280;10182;52.896;6.496;2023-03-25T05:37:32;99764.78;;;7.49;100.00
20043;BME280;10182;52.896;6.496;2023-03-25T05:42:35;99765.72;;;7.48;100.00
20043;BME280;10182;52.896;6.496;2023-03-25T05:47:37;99759.94;;;7.41;100.00
20043;BME280;10182;52.896;6.496;2023-03-25T05:52:39;99767.13;;;7.37;100.00
20043;BME280;10182;52.896;6.496;2023-03-25T05:57:43;99769.75;;;7.37;100.00
20043;BME280;10182;52.896;6.496;2023-03-25T06:02:45;99768.59;;;7.43;100.00
20043;BME280;10182;52.896;6.496;2023-03-25T06:07:48;99763.63;;;7.37;100.00
20043;BME280;10182;52.896;6.496;2023-03-25T06:12:51;99773.03;;;7.42;100.00
20043;BME280;10182;52.896;6.496;2023-03-25T06:17:54;99771.06;;;7.46;100.00
20043;BME280;10182;52.896;6.496;2023-03-25T06:22:55;99777.81;;;7.52;100.00
20043;BME280;10182;52.896;6.496;2023-03-25T06:27:59;99782.16;;;7.53;100.00
20043;BME280;10182;52.896;6.496;2023-03-25T06:33:02;99780.94;;;7.42;100.00
20043;BME280;10182;52.896;6.496;2023-03-25T06:38:05;99787.19;;;7.40;100.00
20043;BME280;10182;52.896;6.496;2023-03-25T06:43:08;99777.97;;;7.49;100.00
20043;BME280;10182;52.896;6.496;2023-03-25T06:48:10;99784.44;;;7.60;100.00
20043;BME280;10182;52.896;6.496;2023-03-25T06:53:11;99775.38;;;7.66;100.00
20043;BME280;10182;52.896;6.496;2023-03-25T06:58:15;99778.47;;;7.74;100.00
20043;BME280;10182;52.896;6.496;2023-03-25T07:03:16;99775.75;;;7.76;100.00
20043;BME280;10182;52.896;6.496;2023-03-25T07:08:18;99772.75;;;7.84;100.00
20043;BME280;10182;52.896;6.496;2023-03-25T07:13:21;99769.56;;;7.94;100.00
20043;BME280;10182;52.896;6.496;2023-03-25T07:18:23;99750.38;;;8.08;100.00
20043;BME280;10182;52.896;6.496;2023-03-25T07:23:25;99748.47;;;8.28;100.00
20043;BME280;10182;52.896;6.496;2023-03-25T07:28:28;99758.25;;;8.26;100.00
20043;BME280;10182;52.896;6.496;2023-03-25T07:33:30;99763.09;;;8.18;100.00
20043;BME280;10182;52.896;6.496;2023-03-25T07:38:32;99765.66;;;8.02;100.00
20043;BME280;10182;52.896;6.496;2023-03-25T07:43:35;99788.56;;;7.84;100.00
20043;BME280;10182;52.896;6.496;2023-03-25T07:48:37;99805.53;;;7.78;100.00
20043;BME280;10182;52.896;6.496;2023-03-25T07:53:39;99796.69;;;7.79;100.00
20043;BME280;10182;52.896;6.496;2023-03-25T07:58:45;99807.47;;;7.74;100.00
20043;BME280;10182;52.896;6.496;2023-03-25T08:03:48;99804.19;;;7.69;100.00
20043;BME280;10182;52.896;6.496;2023-03-25T08:08:50;99809.63;;;7.66;100.00
20043;BME280;10182;52.896;6.496;2023-03-25T08:13:53;99806.69;;;7.55;100.00
20043;BME280;10182;52.896;6.496;2023-03-25T08:18:55;99807.03;;;7.47;100.00
20043;BME280;10182;52.896;6.496;2023-03-25T08:23:57;99809.22;;;7.56;100.00
20043;BME280;10182;52.896;6.496;2023-03-25T08:29:03;99814.53;;;7.74;100.00
20043;BME280;10182;52.896;6.496;2023-03-25T08:34:05;99813.75;;;8.07;100.00
20043;BME280;10182;52.896;6.496;2023-03-25T08:39:07;99798.69;;;8.09;100.00
20043;BME280;10182;52.896;6.496;2023-03-25T08:44:12;99797.53;;;8.14;100.00
20043;BME280;10182;52.896;6.496;2023-03-25T08:49:14;99794.75;;;8.18;100.00
20043;BME280;10182;52.896;6.496;2023-03-25T08:54:15;99797.59;;;8.13;100.00
20043;BME280;10182;52.896;6.496;2023-03-25T08:59:19;99802.41;;;8.22;100.00
20043;BME280;10182;52.896;6.496;2023-03-25T09:04:21;99801.84;;;8.51;100.00
20043;BME280;10182;52.896;6.496;2023-03-25T09:09:22;99790.25;;;8.87;100.00
20043;BME280;10182;52.896;6.496;2023-03-25T09:14:25;99807.53;;;8.76;100.00
20043;BME280;10182;52.896;6.496;2023-03-25T09:19:27;99810.72;;;8.83;100.00
20043;BME280;10182;52.896;6.496;2023-03-25T09:24:29;99812.16;;;9.05;100.00
20043;BME280;10182;52.896;6.496;2023-03-25T09:29:34;99816.59;;;9.04;100.00
20043;BME280;10182;52.896;6.496;2023-03-25T09:34:36;99808.63;;;8.88;100.00
20043;BME280;10182;52.896;6.496;2023-03-25T09:39:38;99817.31;;;8.58;100.00
20043;BME280;10182;52.896;6.496;2023-03-25T09:44:52;99828.47;;;8.46;100.00
20043;BME280;10182;52.896;6.496;2023-03-25T09:49:58;99824.44;;;8.56;100.00
20043;BME280;10182;52.896;6.496;2023-03-25T09:55:03;99820.69;;;8.60;100.00
20043;BME280;10182;52.896;6.496;2023-03-25T10:00:16;99831.03;;;8.81;100.00
20043;BME280;10182;52.896;6.496;2023-03-25T10:05:24;99826.97;;;8.91;100.00
20043;BME280;10182;52.896;6.496;2023-03-25T10:10:38;99828.25;;;9.00;100.00
20043;BME280;10182;52.896;6.496;2023-03-25T10:15:53;99827.41;;;9.15;100.00
20043;BME280;10182;52.896;6.496;2023-03-25T10:21:06;99834.59;;;9.13;100.00
20043;BME280;10182;52.896;6.496;2023-03-25T10:26:14;99840.78;;;9.12;100.00
20043;BME280;10182;52.896;6.496;2023-03-25T10:31:23;99833.91;;;8.94;100.00
20043;BME280;10182;52.896;6.496;2023-03-25T10:36:30;99842.25;;;9.02;100.00
20043;BME280;10182;52.896;6.496;2023-03-25T10:41:35;99842.44;;;9.31;100.00
20043;BME280;10182;52.896;6.496;2023-03-25T10:46:42;99834.97;;;9.54;100.00
20043;BME280;10182;52.896;6.496;2023-03-25T10:51:49;99829.28;;;9.45;100.00
20043;BME280;10182;52.896;6.496;2023-03-25T10:56:55;99836.59;;;9.56;100.00
20043;BME280;10182;52.896;6.496;2023-03-25T11:02:03;99838.22;;;9.59;100.00
20043;BME280;10182;52.896;6.496;2023-03-25T11:07:16;99835.25;;;9.65;100.00
20043;BME280;10182;52.896;6.496;2023-03-25T11:12:21;99846.06;;;9.60;100.00
20043;BME280;10182;52.896;6.496;2023-03-25T11:17:24;99850.03;;;9.83;100.00
20043;BME280;10182;52.896;6.496;2023-03-25T11:22:29;99839.28;;;9.87;100.00
20043;BME280;10182;52.896;6.496;2023-03-25T11:27:41;99842.16;;;9.98;100.00
20043;BME280;10182;52.896;6.496;2023-03-25T11:32:55;99823.72;;;10.27;100.00
20043;BME280;10182;52.896;6.496;2023-03-25T11:38:00;99821.09;;;10.70;100.00
20043;BME280;10182;52.896;6.496;2023-03-25T11:43:03;99820.44;;;10.95;100.00
20043;BME280;10182;52.896;6.496;2023-03-25T11:48:11;99806.31;;;11.09;100.00
20043;BME280;10182;52.896;6.496;2023-03-25T11:53:16;99816.59;;;10.72;100.00
20043;BME280;10182;52.896;6.496;2023-03-25T11:58:19;99817.13;;;10.92;100.00
20043;BME280;10182;52.896;6.496;2023-03-25T12:03:26;99811.19;;;10.88;100.00
20043;BME280;10182;52.896;6.496;2023-03-25T12:08:29;99822.34;;;10.64;100.00
20043;BME280;10182;52.896;6.496;2023-03-25T12:13:50;99802.13;;;10.63;100.00
20043;BME280;10182;52.896;6.496;2023-03-25T12:19:06;99818.94;;;10.77;100.00
20043;BME280;10182;52.896;6.496;2023-03-25T12:24:22;99813.53;;;10.78;100.00
20043;BME280;10182;52.896;6.496;2023-03-25T12:29:37;99804.00;;;10.76;100.00
20043;BME280;10182;52.896;6.496;2023-03-25T12:34:54;99812.88;;;11.04;100.00
20043;BME280;10182;52.896;6.496;2023-03-25T12:40:16;99794.34;;;10.75;100.00
20043;BME280;10182;52.896;6.496;2023-03-25T12:45:41;99815.41;;;11.20;100.00
20043;BME280;10182;52.896;6.496;2023-03-25T12:50:53;99800.13;;;10.67;100.00
20043;BME280;10182;52.896;6.496;2023-03-25T12:56:10;99812.81;;;10.76;100.00
20043;BME280;10182;52.896;6.496;2023-03-25T13:01:23;99798.00;;;10.87;100.00
20043;BME280;10182;52.896;6.496;2023-03-25T13:06:34;99800.81;;;11.12;100.00
20043;BME280;10182;52.896;6.496;2023-03-25T13:11:40;99799.06;;;10.98;100.00
20043;BME280;10182;52.896;6.496;2023-03-25T13:16:44;99790.19;;;10.71;100.00
20043;BME280;10182;52.896;6.496;2023-03-25T13:21:49;99783.03;;;11.14;100.00
20043;BME280;10182;52.896;6.496;2023-03-25T13:26:53;99793.84;;;10.82;100.00
20043;BME280;10182;52.896;6.496;2023-03-25T13:31:57;99792.94;;;10.69;100.00
20043;BME280;10182;52.896;6.496;2023-03-25T13:37:08;99783.94;;;10.86;100.00
20043;BME280;10182;52.896;6.496;2023-03-25T13:42:15;99795.75;;;11.37;100.00
20043;BME280;10182;52.896;6.496;2023-03-25T13:47:23;99792.69;;;11.15;100.00
20043;BME280;10182;52.896;6.496;2023-03-25T13:52:32;99782.88;;;10.74;100.00
20043;BME280;10182;52.896;6.496;2023-03-25T14:03:35;99788.50;;;10.55;100.00
20043;BME280;10182;52.896;6.496;2023-03-25T14:14:18;99826.66;;;9.76;100.00
20043;BME280;10182;52.896;6.496;2023-03-25T14:19:26;99856.91;;;9.40;100.00
20043;BME280;10182;52.896;6.496;2023-03-25T14:24:31;99877.94;;;8.93;100.00
20043;BME280;10182;52.896;6.496;2023-03-25T14:29:39;99919.69;;;7.61;100.00
20043;BME280;10182;52.896;6.496;2023-03-25T14:34:42;99925.47;;;7.50;100.00
20043;BME280;10182;52.896;6.496;2023-03-25T14:39:44;99927.03;;;7.54;100.00
20043;BME280;10182;52.896;6.496;2023-03-25T14:44:49;99914.31;;;7.82;100.00
20043;BME280;10182;52.896;6.496;2023-03-25T14:49:54;99915.41;;;7.77;100.00
20043;BME280;10182;52.896;6.496;2023-03-25T14:55:05;99914.19;;;7.85;100.00
20043;BME280;10182;52.896;6.496;2023-03-25T15:00:22;99908.56;;;8.10;100.00
20043;BME280;10182;52.896;6.496;2023-03-25T15:05:27;99903.34;;;8.45;100.00
20043;BME280;10182;52.896;6.496;2023-03-25T15:10:32;99913.88;;;8.62;100.00
20043;BME280;10182;52.896;6.496;2023-03-25T15:15:53;99908.38;;;8.50;100.00
20043;BME280;10182;52.896;6.496;2023-03-25T15:21:01;99917.03;;;8.34;100.00
20043;BME280;10182;52.896;6.496;2023-03-25T15:26:04;99915.84;;;8.22;100.00
20043;BME280;10182;52.896;6.496;2023-03-25T15:31:28;99930.50;;;8.10;100.00
20043;BME280;10182;52.896;6.496;2023-03-25T15:36:57;99927.47;;;8.01;100.00
20043;BME280;10182;52.896;6.496;2023-03-25T15:48:21;99932.28;;;8.46;100.00
20043;BME280;10182;52.896;6.496;2023-03-25T15:53:55;99926.00;;;8.49;100.00
20043;BME280;10182;52.896;6.496;2023-03-25T15:59:01;99935.38;;;8.55;100.00
20043;BME280;10182;52.896;6.496;2023-03-25T16:04:10;99943.97;;;8.41;100.00
20043;BME280;10182;52.896;6.496;2023-03-25T16:09:17;99949.88;;;8.46;100.00
20043;BME280;10182;52.896;6.496;2023-03-25T16:14:21;99963.03;;;8.48;100.00
20043;BME280;10182;52.896;6.496;2023-03-25T16:19:26;99974.69;;;8.42;100.00
20043;BME280;10182;52.896;6.496;2023-03-25T16:24:30;99980.72;;;8.45;100.00
20043;BME280;10182;52.896;6.496;2023-03-25T16:29:33;99989.44;;;8.48;100.00
20043;BME280;10182;52.896;6.496;2023-03-25T16:34:39;99998.94;;;8.50;100.00
20043;BME280;10182;52.896;6.496;2023-03-25T16:39:41;99996.53;;;8.45;100.00
20043;BME280;10182;52.896;6.496;2023-03-25T16:44:43;99996.59;;;8.44;100.00
20043;BME280;10182;52.896;6.496;2023-03-25T16:49:48;100014.44;;;8.39;100.00
20043;BME280;10182;52.896;6.496;2023-03-25T17:00:40;100037.63;;;8.32;100.00
20043;BME280;10182;52.896;6.496;2023-03-25T17:05:53;100040.13;;;8.35;100.00
20043;BME280;10182;52.896;6.496;2023-03-25T17:10:57;100045.25;;;8.38;100.00
20043;BME280;10182;52.896;6.496;2023-03-25T17:15:59;100057.59;;;8.38;100.00
20043;BME280;10182;52.896;6.496;2023-03-25T17:21:08;100061.19;;;8.37;100.00
20043;BME280;10182;52.896;6.496;2023-03-25T17:26:13;100074.44;;;8.35;100.00
20043;BME280;10182;52.896;6.496;2023-03-25T17:31:26;100081.56;;;8.33;100.00
20043;BME280;10182;52.896;6.496;2023-03-25T17:36:31;100099.28;;;8.31;100.00
20043;BME280;10182;52.896;6.496;2023-03-25T17:41:35;100109.66;;;8.34;100.00
20043;BME280;10182;52.896;6.496;2023-03-25T17:46:37;100111.50;;;8.32;100.00
20043;BME280;10182;52.896;6.496;2023-03-25T17:51:40;100124.22;;;8.24;100.00
20043;BME280;10182;52.896;6.496;2023-03-25T17:56:43;100143.47;;;8.26;100.00
20043;BME280;10182;52.896;6.496;2023-03-25T18:01:47;100144.66;;;8.19;100.00
20043;BME280;10182;52.896;6.496;2023-03-25T18:06:50;100150.03;;;8.17;100.00
20043;BME280;10182;52.896;6.496;2023-03-25T18:11:54;100156.59;;;8.08;100.00
20043;BME280;10182;52.896;6.496;2023-03-25T18:16:56;100158.50;;;8.05;100.00
20043;BME280;10182;52.896;6.496;2023-03-25T18:21:59;100181.66;;;7.98;100.00
20043;BME280;10182;52.896;6.496;2023-03-25T18:27:00;100185.31;;;7.95;100.00
20043;BME280;10182;52.896;6.496;2023-03-25T18:32:04;100181.94;;;7.92;100.00
20043;BME280;10182;52.896;6.496;2023-03-25T18:37:09;100194.97;;;7.95;100.00
20043;BME280;10182;52.896;6.496;2023-03-25T18:42:11;100191.69;;;7.90;100.00
20043;BME280;10182;52.896;6.496;2023-03-25T18:47:13;100201.41;;;7.89;100.00
20043;BME280;10182;52.896;6.496;2023-03-25T18:52:16;100218.94;;;7.90;100.00
20043;BME280;10182;52.896;6.496;2023-03-25T18:57:18;100222.63;;;7.86;100.00
20043;BME280;10182;52.896;6.496;2023-03-25T19:02:23;100228.75;;;7.87;100.00
20043;BME280;10182;52.896;6.496;2023-03-25T19:07:26;100234.03;;;7.87;100.00
20043;BME280;10182;52.896;6.496;2023-03-25T19:12:27;100252.63;;;7.84;100.00
20043;BME280;10182;52.896;6.496;2023-03-25T19:17:29;100252.69;;;7.82;100.00
20043;BME280;10182;52.896;6.496;2023-03-25T19:22:32;100266.25;;;7.73;100.00
20043;BME280;10182;52.896;6.496;2023-03-25T19:27:34;100268.97;;;7.71;100.00
20043;BME280;10182;52.896;6.496;2023-03-25T19:32:36;100272.53;;;7.70;100.00
20043;BME280;10182;52.896;6.496;2023-03-25T19:37:40;100273.50;;;7.68;100.00
20043;BME280;10182;52.896;6.496;2023-03-25T19:42:52;100284.38;;;7.60;100.00
20043;BME280;10182;52.896;6.496;2023-03-25T19:47:54;100281.16;;;7.53;100.00
20043;BME280;10182;52.896;6.496;2023-03-25T19:52:58;100279.56;;;7.49;100.00
20043;BME280;10182;52.896;6.496;2023-03-25T19:58:00;100277.03;;;7.46;100.00
20043;BME280;10182;52.896;6.496;2023-03-25T20:03:03;100270.06;;;7.45;100.00
20043;BME280;10182;52.896;6.496;2023-03-25T20:08:07;100288.69;;;7.40;100.00
20043;BME280;10182;52.896;6.496;2023-03-25T20:13:09;100279.06;;;7.39;100.00
20043;BME280;10182;52.896;6.496;2023-03-25T20:18:10;100274.34;;;7.25;100.00
20043;BME280;10182;52.896;6.496;2023-03-25T20:23:16;100282.25;;;7.25;100.00
20043;BME280;10182;52.896;6.496;2023-03-25T20:28:18;100280.50;;;7.26;100.00
20043;BME280;10182;52.896;6.496;2023-03-25T20:33:20;100282.38;;;7.22;100.00
20043;BME280;10182;52.896;6.496;2023-03-25T20:38:24;100281.53;;;7.22;100.00
20043;BME280;10182;52.896;6.496;2023-03-25T20:43:26;100286.59;;;7.26;100.00
20043;BME280;10182;52.896;6.496;2023-03-25T20:48:28;100294.72;;;7.22;100.00
20043;BME280;10182;52.896;6.496;2023-03-25T20:53:31;100295.63;;;7.21;100.00
20043;BME280;10182;52.896;6.496;2023-03-25T20:58:33;100299.16;;;7.20;100.00
20043;BME280;10182;52.896;6.496;2023-03-25T21:03:35;100301.66;;;7.23;100.00
20043;BME280;10182;52.896;6.496;2023-03-25T21:08:38;100303.31;;;7.25;100.00
20043;BME280;10182;52.896;6.496;2023-03-25T21:13:40;100306.03;;;7.24;100.00
20043;BME280;10182;52.896;6.496;2023-03-25T21:18:42;100312.19;;;7.23;100.00
20043;BME280;10182;52.896;6.496;2023-03-25T21:23:45;100321.06;;;7.22;100.00
20043;BME280;10182;52.896;6.496;2023-03-25T21:28:47;100315.03;;;7.18;100.00
20043;BME280;10182;52.896;6.496;2023-03-25T21:33:50;100327.22;;;7.21;100.00
20043;BME280;10182;52.896;6.496;2023-03-25T21:38:55;100333.47;;;7.18;100.00
20043;BME280;10182;52.896;6.496;2023-03-25T21:43:57;100332.63;;;7.18;100.00
20043;BME280;10182;52.896;6.496;2023-03-25T21:49:00;100337.00;;;7.17;100.00
20043;BME280;10182;52.896;6.496;2023-03-25T21:54:04;100349.28;;;7.18;100.00
20043;BME280;10182;52.896;6.496;2023-03-25T21:59:06;100346.84;;;7.14;100.00
20043;BME280;10182;52.896;6.496;2023-03-25T22:04:08;100352.94;;;7.14;100.00
20043;BME280;10182;52.896;6.496;2023-03-25T22:09:11;100364.66;;;7.07;100.00
20043;BME280;10182;52.896;6.496;2023-03-25T22:14:13;100381.34;;;7.06;100.00
20043;BME280;10182;52.896;6.496;2023-03-25T22:19:15;100389.94;;;7.11;100.00
20043;BME280;10182;52.896;6.496;2023-03-25T22:24:18;100394.28;;;7.12;100.00
20043;BME280;10182;52.896;6.496;2023-03-25T22:29:20;100403.06;;;7.13;100.00
20043;BME280;10182;52.896;6.496;2023-03-25T22:34:22;100408.31;;;7.13;100.00
20043;BME280;10182;52.896;6.496;2023-03-25T22:39:25;100410.97;;;7.13;100.00
20043;BME280;10182;52.896;6.496;2023-03-25T22:44:27;100412.00;;;7.08;100.00
20043;BME280;10182;52.896;6.496;2023-03-25T22:49:29;100418.75;;;7.16;100.00
20043;BME280;10182;52.896;6.496;2023-03-25T22:54:33;100428.59;;;7.10;100.00
20043;BME280;10182;52.896;6.496;2023-03-25T22:59:35;100435.75;;;7.07;100.00
20043;BME280;10182;52.896;6.496;2023-03-25T23:04:38;100435.81;;;7.05;100.00
20043;BME280;10182;52.896;6.496;2023-03-25T23:09:41;100440.28;;;7.03;100.00
20043;BME280;10182;52.896;6.496;2023-03-25T23:14:47;100438.53;;;7.02;100.00
20043;BME280;10182;52.896;6.496;2023-03-25T23:19:50;100437.97;;;6.94;100.00
20043;BME280;10182;52.896;6.496;2023-03-25T23:24:53;100444.16;;;6.93;100.00
20043;BME280;10182;52.896;6.496;2023-03-25T23:29:56;100448.72;;;6.88;100.00
20043;BME280;10182;52.896;6.496;2023-03-25T23:34:58;100449.97;;;6.77;100.00
20043;BME280;10182;52.896;6.496;2023-03-25T23:40:05;100450.09;;;6.74;100.00
20043;BME280;10182;52.896;6.496;2023-03-25T23:45:08;100450.88;;;6.76;100.00
20043;BME280;10182;52.896;6.496;2023-03-25T23:50:10;100457.13;;;6.74;100.00
20043;BME280;10182;52.896;6.496;2023-03-25T23:55:19;100449.25;;;6.72;100.00
